• Join FlightAware (Why Join?)
  • Login
  • US Flag 
Rudolph Flight #1: Arrived! 
09:05AM EST


 

Airport Tracker/Info


-or-


 

Live Flight TrackerFlight Track Log ✈ AAL963 ✈ 24-May-2013 ✈ KDFW - SBGR / GRU

Flight Track Log - Related Links

Times and Time Zones

All times are in EDT time to prevent confusion due to time zone crossing. See the AAL963 flight status page for this flight to view local times or setup timezone preferences in your user account.

Time Position Orientation Groundspeed Altitude Reporting Facility
EDT Latitude Longitude Course Direction KTS MPH feet Rate Location/Type
12:04AM 32.8650 -97.0240 161° South 153 176 2,000  Level FlightAware
12:04AM 32.8450 -97.0150 159° South 183 211 2,300 900 Climbing FlightAware
12:05AM 32.8180 -97.0050 163° South 213 245 2,900 1,440 Climbing FlightAware
12:05AM 32.7910 -96.9970 166° South 226 260 3,700 2,220 Climbing FlightAware
12:05AM 32.7760 -96.9930 167° South 225 259 4,500 2,520 Climbing FlightAware
12:06AM 32.7450 -96.9850 168° South 233 268 5,600 2,280 Climbing FlightAware
12:06AM 32.7340 -96.9820 167° South 232 267 6,000 2,040 Climbing FlightAware
12:06AM 32.7010 -96.9690 162° South 238 274 7,100 2,040 Climbing FlightAware
12:07AM 32.6910 -96.9580 137° Southeast 246 283 7,500 1,980 Climbing FlightAware
12:07AM 32.6860 -96.9430 112° Southeast 252 290 7,900 1,920 Climbing FlightAware
12:07AM 32.6840 -96.9210 96° East 264 304 8,400 1,620 Climbing FlightAware
12:07AM 32.6840 -96.9020 90° East 272 313 8,700 1,800 Climbing FlightAware
12:08AM 32.6840 -96.8600 90° East 278 320 9,600 1,620 Climbing FlightAware
12:08AM 32.6830 -96.8390 93° East 283 326 9,800 240 Climbing FlightAware
12:09AM 32.6820 -96.7950 92° East 283 326 9,800  Level FlightAware
12:09AM 32.6810 -96.7700 93° East 276 318 9,800  Level FlightAware
12:09AM 32.6790 -96.7290 93° East 269 310 9,800  Level FlightAware
12:09AM 32.6790 -96.7110 90° East 273 314 9,800 300 Level FlightAware
12:10AM 32.6790 -96.6730 90° East 288 331 10,000 1,860 Climbing FlightAware
12:11AM 32.6780 -96.6140 91° East 277 319 11,800 2,460 Climbing FlightAware
12:11AM 32.6760 -96.5700 93° East 275 316 12,800 1,920 Climbing FlightAware
12:11AM 32.6670 -96.5500 118° Southeast 278 320 13,200 1,620 Climbing FlightAware
12:12AM 32.6360 -96.4940 123° Southeast 289 333 14,400 1,500 Climbing FlightAware
12:13AM 32.6060 -96.4350 121° Southeast 308 354 15,400 1,020 Climbing FlightAware
12:13AM 32.5720 -96.3670 121° Southeast 344 396 15,900 960 Climbing FlightAware
12:14AM 32.5380 -96.2990 121° Southeast 360 414 16,800 1,680 Climbing FlightAware
12:15AM 32.5020 -96.2270 121° Southeast 365 420 18,200 1,680 Climbing FlightAware
12:15AM 32.4670 -96.1570 121° Southeast 379 436 19,100 1,440 Climbing FlightAware
12:16AM 32.4290 -96.0810 121° Southeast 389 448 20,200 1,560 Climbing FlightAware
12:17AM 32.3900 -96.0030 121° Southeast 397 457 21,300 1,500 Climbing FlightAware
12:18AM 32.3480 -95.9200 121° Southeast 405 466 22,400 1,560 Climbing FlightAware
12:18AM 32.3070 -95.8400 121° Southeast 408 470 23,600 1,860 Climbing FlightAware
12:19AM 32.2650 -95.7570 121° Southeast 403 464 25,100 1,020 Climbing FlightAware
12:20AM 32.1770 -95.5840 121° Southeast 443 510 25,900 540 Climbing FlightAware
12:21AM 32.1360 -95.5040 121° Southeast 459 528 26,300 180 Climbing FlightAware
12:23AM 32.0120 -95.2590 121° Southeast 467 537 26,500 60 Climbing FlightAware
12:24AM 31.9770 -95.1900 121° Southeast 467 537 26,500  Level FlightAware
12:25AM 31.9310 -95.1010 121° Southeast 467 537 26,500  Level FlightAware
12:25AM 31.8960 -95.0330 121° Southeast 467 537 26,500 1,620 Level FlightAware
12:28AM 31.6430 -94.5480 121° Southeast 514 592 31,900 1,800 Climbing FlightAware
12:29AM 31.5500 -94.3710 122° Southeast 506 582 33,500 480 Climbing FlightAware
12:31AM 31.4210 -94.1210 121° Southeast 506 582 33,500  Level FlightAware
12:33AM 31.3330 -93.9500 122° Southeast 506 582 33,500  Level FlightAware
12:33AM 31.2960 -93.8780 121° Southeast 506 582 33,500  Level FlightAware
12:34AM 31.2470 -93.7820 121° Southeast 506 582 33,500  Level FlightAware
12:35AM 31.2100 -93.7100 121° Southeast 506 582 33,500  Level FlightAware
12:35AM 31.1610 -93.6140 121° Southeast 506 582 33,500  Level FlightAware
12:36AM 31.1240 -93.5430 121° Southeast 506 582 33,500  Level FlightAware
12:37AM 31.0750 -93.4470 121° Southeast 506 582 33,500  Level FlightAware
12:37AM 31.0380 -93.3750 121° Southeast 506 582 33,500  Level FlightAware
12:38AM 30.9890 -93.2800 121° Southeast 506 582 33,500 300 Level FlightAware
12:42AM 30.1700 -93.1150 170° South 480 552 35,000 300 Climbing FlightAware
12:43AM 30.0950 -93.0690 152° Southeast 483 556 35,000  Level FlightAware
12:44AM 30.0070 -93.0160 152° Southeast 491 565 35,000  Level FlightAware
12:44AM 29.9180 -92.9620 152° Southeast 493 567 35,000  Level FlightAware
12:46AM 29.7670 -92.8690 152° Southeast 494 568 35,000  Level FlightAware
12:47AM 29.6520 -92.8000 152° Southeast 499 574 35,000  Level FlightAware
12:47AM 29.5670 -92.7480 152° Southeast 499 574 35,000  Level FlightAware
12:48AM 29.5040 -92.7100 152° Southeast 499 574 35,000  Level FlightAware
12:49AM 29.4370 -92.6680 151° Southeast 499 574 35,000  Level FlightAware
12:49AM 29.3540 -92.6180 152° Southeast 499 574 35,000  Level FlightAware
12:50AM 29.2900 -92.5790 152° Southeast 499 574 35,000  Level FlightAware
12:51AM 29.2060 -92.5280 152° Southeast 499 574 35,000  Level FlightAware
12:51AM 29.1440 -92.4900 152° Southeast 499 574 35,000  Level FlightAware
12:52AM 29.0610 -92.4390 152° Southeast 499 574 35,000  Level FlightAware
12:53AM 28.9980 -92.4010 152° Southeast 499 574 35,000  Level FlightAware
12:54AM 28.9150 -92.3510 152° Southeast 499 574 35,000  Level FlightAware
12:54AM 28.8530 -92.3130 152° Southeast 499 574 35,000  Level FlightAware
12:55AM 28.7590 -92.2560 152° Southeast 499 574 35,000  Level FlightAware
12:56AM 28.6740 -92.2050 152° Southeast 499 574 35,000 -120 Level FlightAware
12:56AM 28.4539 -92.0847 152° Southeast 513 590 34,900 -120 Descending Houston Center
12:57AM 28.3278 -92.0094 152° Southeast 513 590 34,900  Level Houston Center
12:58AM 28.2003 -91.9342 153° Southeast 514 592 35,000  Climbing Houston Center
12:59AM 28.0728 -91.8619 153° Southeast 513 590 35,000 -60 Level Houston Center
01:00AM 27.9439 -91.7878 153° Southeast 517 595 34,900 -60 Descending Houston Center
01:01AM 27.7914 -91.6989 153° Southeast 518 596 34,900  Level Houston Center
01:02AM 27.6636 -91.6242 153° Southeast 519 597 34,900  Level Houston Center
01:03AM 27.5350 -91.5500 153° Southeast 518 596 35,000  Climbing Houston Center
01:04AM 27.4064 -91.4764 153° Southeast 518 596 34,900  Descending Houston Center
01:06AM 27.2771 -91.3963 153° Southeast  Level FlightAware Approximate
01:13AM 26.4517 -90.9259 152° Southeast  Level FlightAware Approximate
01:14AM 26.3342 -90.8580 154° Southeast  Level FlightAware Approximate
01:15AM 26.2154 -90.7932 154° Southeast  Level FlightAware Approximate
01:16AM 26.0969 -90.7277 153° Southeast  Level FlightAware Approximate
01:17AM 25.9786 -90.6618 153° Southeast  Level FlightAware Approximate
01:18AM 25.8603 -90.5960 153° Southeast  Level FlightAware Approximate
01:19AM 25.7420 -90.5304 153° Southeast  Level FlightAware Approximate
01:20AM 25.6236 -90.4649 153° Southeast  Level FlightAware Approximate
01:21AM 25.5053 -90.3995 154° Southeast  Level FlightAware Approximate
01:22AM 25.3868 -90.3342 154° Southeast  Level FlightAware Approximate
01:23AM 25.2684 -90.2691 154° Southeast  Level FlightAware Approximate
01:24AM 25.1499 -90.2041 154° Southeast  Level FlightAware Approximate
01:25AM 25.0314 -90.1392 154° Southeast  Level FlightAware Approximate
01:26AM 24.9129 -90.0745 154° Southeast  Level FlightAware Approximate
01:27AM 24.7943 -90.0098 154° Southeast  Level FlightAware Approximate
01:28AM 24.6757 -89.9453 154° Southeast  Level FlightAware Approximate
01:29AM 24.5571 -89.8809 154° Southeast  Level FlightAware Approximate
01:30AM 24.4549 -89.8049 138° Southeast  Level FlightAware Approximate
01:31AM 24.3559 -89.7059 138° Southeast  Level FlightAware Approximate
01:32AM 24.2588 -89.6048 135° Southeast  Level FlightAware Approximate
01:33AM 24.1642 -89.5009 135° Southeast  Level FlightAware Approximate
01:34AM 24.0695 -89.3972 135° Southeast  Level FlightAware Approximate
01:35AM 23.9747 -89.2936 135° Southeast  Level FlightAware Approximate
01:36AM 23.8792 -89.1910 136° Southeast  Level FlightAware Approximate
01:37AM 23.7834 -89.0887 136° Southeast  Level FlightAware Approximate
01:38AM 23.6875 -88.9866 136° Southeast  Level FlightAware Approximate
01:39AM 23.5916 -88.8846 136° Southeast  Level FlightAware Approximate
01:40AM 23.4956 -88.7828 136° Southeast  Level FlightAware Approximate
01:41AM 23.3995 -88.6812 136° Southeast  Level FlightAware Approximate
01:42AM 23.3033 -88.5797 136° Southeast  Level FlightAware Approximate
01:43AM 23.2071 -88.4783 136° Southeast  Level FlightAware Approximate
01:44AM 23.1108 -88.3771 136° Southeast  Level FlightAware Approximate
01:45AM 23.0145 -88.2760 136° Southeast  Level FlightAware Approximate
01:46AM 22.9181 -88.1750 136° Southeast  Level FlightAware Approximate
01:47AM 22.8216 -88.0743 136° Southeast  Level FlightAware Approximate
01:48AM 22.7251 -87.9736 136° Southeast  Level FlightAware Approximate
01:49AM 22.6285 -87.8731 136° Southeast  Level FlightAware Approximate
01:50AM 22.5319 -87.7728 136° Southeast  Level FlightAware Approximate
01:51AM 22.4351 -87.6725 136° Southeast  Level FlightAware Approximate
01:52AM 22.3384 -87.5725 136° Southeast  Level FlightAware Approximate
01:53AM 22.2415 -87.4725 136° Southeast  Level FlightAware Approximate
01:54AM 22.1446 -87.3727 136° Southeast  Level FlightAware Approximate
01:55AM 22.0475 -87.2729 136° Southeast  Level FlightAware Approximate
01:56AM 21.9503 -87.1731 136° Southeast  Level FlightAware Approximate
01:57AM 21.8530 -87.0736 136° Southeast  Level FlightAware Approximate
01:58AM 21.7557 -86.9741 136° Southeast  Level FlightAware Approximate
01:59AM 21.6584 -86.8747 136° Southeast  Level FlightAware Approximate
02:00AM 21.5620 -86.7744 136° Southeast  Level FlightAware Approximate
02:01AM 21.4655 -86.6742 136° Southeast  Level FlightAware Approximate
02:02AM 21.3690 -86.5742 136° Southeast  Level FlightAware Approximate
02:03AM 21.2724 -86.4743 136° Southeast  Level FlightAware Approximate
02:04AM 21.1753 -86.3749 137° Southeast  Level FlightAware Approximate
02:05AM 21.0776 -86.2764 137° Southeast  Level FlightAware Approximate
02:06AM 20.9799 -86.1780 137° Southeast  Level FlightAware Approximate
02:07AM 20.8820 -86.0797 137° Southeast  Level FlightAware Approximate
02:08AM 20.7842 -85.9816 137° Southeast  Level FlightAware Approximate
02:09AM 20.6862 -85.8836 137° Southeast  Level FlightAware Approximate
02:10AM 20.5882 -85.7857 137° Southeast  Level FlightAware Approximate
02:11AM 20.4902 -85.6879 137° Southeast  Level FlightAware Approximate
02:12AM 20.3921 -85.5902 137° Southeast  Level FlightAware Approximate
02:13AM 20.2940 -85.4927 137° Southeast  Level FlightAware Approximate
02:14AM 20.1958 -85.3953 137° Southeast  Level FlightAware Approximate
02:15AM 20.0978 -85.2977 137° Southeast  Level FlightAware Approximate
02:16AM 20.0000 -85.2000 137° Southeast  Level FlightAware Approximate
02:17AM 19.9014 -85.1032 137° Southeast  Level FlightAware Approximate
02:18AM 19.8028 -85.0065 137° Southeast  Level FlightAware Approximate
02:19AM 19.7042 -84.9099 137° Southeast  Level FlightAware Approximate
02:20AM 19.6055 -84.8135 137° Southeast  Level FlightAware Approximate
02:21AM 19.5067 -84.7171 137° Southeast  Level FlightAware Approximate
02:22AM 19.4079 -84.6209 137° Southeast  Level FlightAware Approximate
02:23AM 19.3090 -84.5248 137° Southeast  Level FlightAware Approximate
02:24AM 19.2101 -84.4289 137° Southeast  Level FlightAware Approximate
02:25AM 19.1111 -84.3330 138° Southeast  Level FlightAware Approximate
02:26AM 19.0121 -84.2373 138° Southeast  Level FlightAware Approximate
02:27AM 18.9130 -84.1416 138° Southeast  Level FlightAware Approximate
02:28AM 18.8139 -84.0461 138° Southeast  Level FlightAware Approximate
02:29AM 18.7150 -83.9504 137° Southeast  Level FlightAware Approximate
02:30AM 18.6161 -83.8548 137° Southeast  Level FlightAware Approximate
02:31AM 18.5172 -83.7592 138° Southeast  Level FlightAware Approximate
02:32AM 18.4182 -83.6638 138° Southeast  Level FlightAware Approximate
02:33AM 18.3192 -83.5684 138° Southeast  Level FlightAware Approximate
02:34AM 18.2204 -83.4729 137° Southeast  Level FlightAware Approximate
02:35AM 18.1216 -83.3773 137° Southeast  Level FlightAware Approximate
02:36AM 18.0228 -83.2819 137° Southeast  Level FlightAware Approximate
02:37AM 17.9239 -83.1866 137° Southeast  Level FlightAware Approximate
02:38AM 17.8250 -83.0914 137° Southeast  Level FlightAware Approximate
02:39AM 17.7251 -82.9974 138° Southeast  Level FlightAware Approximate
02:40AM 17.6250 -82.9036 138° Southeast  Level FlightAware Approximate
02:41AM 17.5249 -82.8099 138° Southeast  Level FlightAware Approximate
02:42AM 17.4248 -82.7164 138° Southeast  Level FlightAware Approximate
02:43AM 17.3246 -82.6229 138° Southeast  Level FlightAware Approximate
02:44AM 17.2244 -82.5295 138° Southeast  Level FlightAware Approximate
02:45AM 17.1241 -82.4363 138° Southeast  Level FlightAware Approximate
02:46AM 17.0238 -82.3431 138° Southeast  Level FlightAware Approximate
02:47AM 16.9234 -82.2501 138° Southeast  Level FlightAware Approximate
02:48AM 16.8231 -82.1570 138° Southeast  Level FlightAware Approximate
02:49AM 16.7233 -82.0634 138° Southeast  Level FlightAware Approximate
02:50AM 16.6235 -81.9698 138° Southeast  Level FlightAware Approximate
02:51AM 16.5236 -81.8764 138° Southeast  Level FlightAware Approximate
02:52AM 16.4237 -81.7830 138° Southeast  Level FlightAware Approximate
02:53AM 16.3238 -81.6898 138° Southeast  Level FlightAware Approximate
02:54AM 16.2238 -81.5966 138° Southeast  Level FlightAware Approximate
02:55AM 16.1238 -81.5035 138° Southeast  Level FlightAware Approximate
02:56AM 16.0237 -81.4106 138° Southeast  Level FlightAware Approximate
02:57AM 15.9236 -81.3177 138° Southeast  Level FlightAware Approximate
02:58AM 15.8235 -81.2249 138° Southeast  Level FlightAware Approximate
02:59AM 15.7233 -81.1322 138° Southeast  Level FlightAware Approximate
03:00AM 15.6231 -81.0396 138° Southeast  Level FlightAware Approximate
03:01AM 15.5228 -80.9471 138° Southeast  Level FlightAware Approximate
03:02AM 15.4225 -80.8547 138° Southeast  Level FlightAware Approximate
03:03AM 15.3222 -80.7623 138° Southeast  Level FlightAware Approximate
03:04AM 15.2218 -80.6701 138° Southeast  Level FlightAware Approximate
03:05AM 15.1214 -80.5779 138° Southeast  Level FlightAware Approximate
03:06AM 15.0210 -80.4858 138° Southeast  Level FlightAware Approximate
03:07AM 14.9204 -80.3940 139° Southeast  Level FlightAware Approximate
03:08AM 14.8198 -80.3022 139° Southeast  Level FlightAware Approximate
03:09AM 14.7191 -80.2104 139° Southeast  Level FlightAware Approximate
03:10AM 14.6184 -80.1188 139° Southeast  Level FlightAware Approximate
03:11AM 14.5177 -80.0273 139° Southeast  Level FlightAware Approximate
03:12AM 14.4169 -79.9358 139° Southeast  Level FlightAware Approximate
03:13AM 14.3161 -79.8445 139° Southeast  Level FlightAware Approximate
03:14AM 14.2153 -79.7532 139° Southeast  Level FlightAware Approximate
03:15AM 14.1145 -79.6620 139° Southeast  Level FlightAware Approximate
03:16AM 14.0136 -79.5708 139° Southeast  Level FlightAware Approximate
03:17AM 13.9126 -79.4798 139° Southeast  Level FlightAware Approximate
03:18AM 13.8117 -79.3888 139° Southeast  Level FlightAware Approximate
03:19AM 13.7107 -79.2979 139° Southeast  Level FlightAware Approximate
03:20AM 13.6096 -79.2071 139° Southeast  Level FlightAware Approximate
03:21AM 13.5086 -79.1164 139° Southeast  Level FlightAware Approximate
03:22AM 13.4075 -79.0257 139° Southeast  Level FlightAware Approximate
03:23AM 13.3063 -78.9352 139° Southeast  Level FlightAware Approximate
03:24AM 13.2052 -78.8447 139° Southeast  Level FlightAware Approximate
03:25AM 13.1040 -78.7542 139° Southeast  Level FlightAware Approximate
03:26AM 13.0028 -78.6639 139° Southeast  Level FlightAware Approximate
03:27AM 12.9015 -78.5736 139° Southeast  Level FlightAware Approximate
03:28AM 12.8002 -78.4834 139° Southeast  Level FlightAware Approximate
03:29AM 12.6989 -78.3932 139° Southeast  Level FlightAware Approximate
03:30AM 12.5975 -78.3032 139° Southeast  Level FlightAware Approximate
03:31AM 12.4962 -78.2132 139° Southeast  Level FlightAware Approximate
03:32AM 12.3947 -78.1233 139° Southeast  Level FlightAware Approximate
03:33AM 12.2931 -78.0333 139° Southeast  Level FlightAware Approximate
03:34AM 12.1915 -77.9433 139° Southeast  Level FlightAware Approximate
03:35AM 12.0898 -77.8534 139° Southeast  Level FlightAware Approximate
03:36AM 11.9881 -77.7636 139° Southeast  Level FlightAware Approximate
03:37AM 11.8863 -77.6739 139° Southeast  Level FlightAware Approximate
03:38AM 11.7846 -77.5842 139° Southeast  Level FlightAware Approximate
03:39AM 11.6828 -77.4946 139° Southeast  Level FlightAware Approximate
03:40AM 11.5810 -77.4051 139° Southeast  Level FlightAware Approximate
03:41AM 11.4791 -77.3156 139° Southeast  Level FlightAware Approximate
03:42AM 11.3772 -77.2262 139° Southeast  Level FlightAware Approximate
03:43AM 11.2753 -77.1368 139° Southeast  Level FlightAware Approximate
03:44AM 11.1734 -77.0476 139° Southeast  Level FlightAware Approximate
03:45AM 11.0715 -76.9583 139° Southeast  Level FlightAware Approximate
03:46AM 10.9695 -76.8692 139° Southeast  Level FlightAware Approximate
03:47AM 10.8675 -76.7801 139° Southeast  Level FlightAware Approximate
03:48AM 10.7654 -76.6910 139° Southeast  Level FlightAware Approximate
03:49AM 10.6634 -76.6021 139° Southeast  Level FlightAware Approximate
03:50AM 10.5613 -76.5131 139° Southeast  Level FlightAware Approximate
03:51AM 10.4592 -76.4243 139° Southeast  Level FlightAware Approximate
03:52AM 10.3570 -76.3355 139° Southeast  Level FlightAware Approximate
03:53AM 10.2549 -76.2467 139° Southeast  Level FlightAware Approximate
03:54AM 10.1527 -76.1581 139° Southeast  Level FlightAware Approximate
03:55AM 10.0505 -76.0694 140° Southeast  Level FlightAware Approximate
03:56AM 9.9483 -75.9809 140° Southeast  Level FlightAware Approximate
03:57AM 9.8460 -75.8923 140° Southeast  Level FlightAware Approximate
03:58AM 9.7437 -75.8039 140° Southeast  Level FlightAware Approximate
03:59AM 9.6414 -75.7155 140° Southeast  Level FlightAware Approximate
04:00AM 9.5391 -75.6271 140° Southeast  Level FlightAware Approximate
04:01AM 9.4368 -75.5388 140° Southeast  Level FlightAware Approximate
04:02AM 9.3344 -75.4506 140° Southeast  Level FlightAware Approximate
04:03AM 9.2320 -75.3624 140° Southeast  Level FlightAware Approximate
04:04AM 9.1296 -75.2742 140° Southeast  Level FlightAware Approximate
04:05AM 9.0272 -75.1861 140° Southeast  Level FlightAware Approximate
04:06AM 8.9247 -75.0981 140° Southeast  Level FlightAware Approximate
04:07AM 8.8223 -75.0101 140° Southeast  Level FlightAware Approximate
04:08AM 8.7198 -74.9222 140° Southeast  Level FlightAware Approximate
04:09AM 8.6173 -74.8343 140° Southeast  Level FlightAware Approximate
04:10AM 8.5147 -74.7464 140° Southeast  Level FlightAware Approximate
04:11AM 8.4122 -74.6586 140° Southeast  Level FlightAware Approximate
04:12AM 8.3096 -74.5709 140° Southeast  Level FlightAware Approximate
04:13AM 8.2070 -74.4831 140° Southeast  Level FlightAware Approximate
04:14AM 8.1044 -74.3955 140° Southeast  Level FlightAware Approximate
04:15AM 8.0020 -74.3080 140° Southeast  Level FlightAware Approximate
04:16AM 7.8995 -74.2206 140° Southeast  Level FlightAware Approximate
04:17AM 7.7970 -74.1332 140° Southeast  Level FlightAware Approximate
04:18AM 7.6945 -74.0459 140° Southeast  Level FlightAware Approximate
04:19AM 7.5920 -73.9586 140° Southeast  Level FlightAware Approximate
04:20AM 7.4895 -73.8714 140° Southeast  Level FlightAware Approximate
04:21AM 7.3869 -73.7842 140° Southeast  Level FlightAware Approximate
04:22AM 7.2844 -73.6970 140° Southeast  Level FlightAware Approximate
04:23AM 7.1818 -73.6099 140° Southeast  Level FlightAware Approximate
04:24AM 7.0792 -73.5228 140° Southeast  Level FlightAware Approximate
04:25AM 6.9766 -73.4357 140° Southeast  Level FlightAware Approximate
04:26AM 6.8739 -73.3487 140° Southeast  Level FlightAware Approximate
04:27AM 6.7713 -73.2617 140° Southeast  Level FlightAware Approximate
04:28AM 6.6686 -73.1748 140° Southeast  Level FlightAware Approximate
04:29AM 6.5659 -73.0879 140° Southeast  Level FlightAware Approximate
04:30AM 6.4633 -73.0010 140° Southeast  Level FlightAware Approximate
04:31AM 6.3605 -72.9142 140° Southeast  Level FlightAware Approximate
04:32AM 6.2578 -72.8274 140° Southeast  Level FlightAware Approximate
04:33AM 6.1551 -72.7407 140° Southeast  Level FlightAware Approximate
04:34AM 6.0523 -72.6539 140° Southeast  Level FlightAware Approximate
04:35AM 5.9496 -72.5672 140° Southeast  Level FlightAware Approximate
04:36AM 5.8468 -72.4806 140° Southeast  Level FlightAware Approximate
04:37AM 5.7440 -72.3940 140° Southeast  Level FlightAware Approximate
04:38AM 5.6412 -72.3074 140° Southeast  Level FlightAware Approximate
04:39AM 5.5384 -72.2208 140° Southeast  Level FlightAware Approximate
04:40AM 5.4356 -72.1342 140° Southeast  Level FlightAware Approximate
04:41AM 5.3327 -72.0477 140° Southeast  Level FlightAware Approximate
04:42AM 5.2299 -71.9613 140° Southeast  Level FlightAware Approximate
04:43AM 5.1270 -71.8748 140° Southeast  Level FlightAware Approximate
04:44AM 5.0241 -71.7884 140° Southeast  Level FlightAware Approximate
04:45AM 4.9212 -71.7020 140° Southeast  Level FlightAware Approximate
04:46AM 4.8183 -71.6156 140° Southeast  Level FlightAware Approximate
04:47AM 4.7154 -71.5293 140° Southeast  Level FlightAware Approximate
04:48AM 4.6125 -71.4430 140° Southeast  Level FlightAware Approximate
04:49AM 4.5096 -71.3567 140° Southeast  Level FlightAware Approximate
04:50AM 4.4066 -71.2704 140° Southeast  Level FlightAware Approximate
04:51AM 4.3037 -71.1842 140° Southeast  Level FlightAware Approximate
04:52AM 4.2007 -71.0979 140° Southeast  Level FlightAware Approximate
04:53AM 4.0978 -71.0117 140° Southeast  Level FlightAware Approximate
04:54AM 3.9948 -70.9256 140° Southeast  Level FlightAware Approximate
04:55AM 3.8918 -70.8394 140° Southeast  Level FlightAware Approximate
04:56AM 3.7888 -70.7533 140° Southeast  Level FlightAware Approximate
04:57AM 3.6858 -70.6672 140° Southeast  Level FlightAware Approximate
04:58AM 3.5828 -70.5811 140° Southeast  Level FlightAware Approximate
04:59AM 3.4797 -70.4950 140° Southeast  Level FlightAware Approximate
05:00AM 3.3767 -70.4090 140° Southeast  Level FlightAware Approximate
05:01AM 3.2737 -70.3229 140° Southeast  Level FlightAware Approximate
05:02AM 3.1706 -70.2369 140° Southeast  Level FlightAware Approximate
05:03AM 3.0677 -70.1511 140° Southeast  Level FlightAware Approximate
05:04AM 2.9649 -70.0652 140° Southeast  Level FlightAware Approximate
05:05AM 2.8620 -69.9794 140° Southeast  Level FlightAware Approximate
05:06AM 2.7592 -69.8936 140° Southeast  Level FlightAware Approximate
05:07AM 2.6563 -69.8077 140° Southeast  Level FlightAware Approximate
05:08AM 2.5535 -69.7219 140° Southeast  Level FlightAware Approximate
05:09AM 2.4506 -69.6360 140° Southeast  Level FlightAware Approximate
05:10AM 2.3478 -69.5502 140° Southeast  Level FlightAware Approximate
05:11AM 2.2449 -69.4644 140° Southeast  Level FlightAware Approximate
05:12AM 2.1420 -69.3787 140° Southeast  Level FlightAware Approximate
05:13AM 2.0392 -69.2929 140° Southeast  Level FlightAware Approximate
05:14AM 1.9363 -69.2071 140° Southeast  Level FlightAware Approximate
05:15AM 1.8334 -69.1214 140° Southeast  Level FlightAware Approximate
05:16AM 1.7305 -69.0356 140° Southeast  Level FlightAware Approximate
05:17AM 1.6276 -68.9499 140° Southeast  Level FlightAware Approximate
05:18AM 1.5247 -68.8642 140° Southeast  Level FlightAware Approximate
05:19AM 1.4219 -68.7785 140° Southeast  Level FlightAware Approximate
05:20AM 1.3190 -68.6928 140° Southeast  Level FlightAware Approximate
05:21AM 1.2161 -68.6071 140° Southeast  Level FlightAware Approximate
05:22AM 1.1132 -68.5214 140° Southeast  Level FlightAware Approximate
05:23AM 1.0102 -68.4357 140° Southeast  Level FlightAware Approximate
05:24AM 0.9073 -68.3500 140° Southeast  Level FlightAware Approximate
05:25AM 0.8044 -68.2643 140° Southeast  Level FlightAware Approximate
05:26AM 0.7015 -68.1786 140° Southeast  Level FlightAware Approximate
05:27AM 0.5986 -68.0930 140° Southeast  Level FlightAware Approximate
05:28AM 0.4957 -68.0073 140° Southeast  Level FlightAware Approximate
05:29AM 0.3928 -67.9217 140° Southeast  Level FlightAware Approximate
05:30AM 0.2898 -67.8360 140° Southeast  Level FlightAware Approximate
05:31AM 0.1869 -67.7503 140° Southeast  Level FlightAware Approximate
05:32AM 0.0840 -67.6647 140° Southeast  Level FlightAware Approximate
05:33AM -0.0189 -67.5790 140° Southeast  Level FlightAware Approximate
05:34AM -0.1218 -67.4933 140° Southeast  Level FlightAware Approximate
05:35AM -0.2247 -67.4077 140° Southeast  Level FlightAware Approximate
05:36AM -0.3277 -67.3220 140° Southeast  Level FlightAware Approximate
05:37AM -0.4306 -67.2364 140° Southeast  Level FlightAware Approximate
05:38AM -0.5335 -67.1507 140° Southeast  Level FlightAware Approximate
05:39AM -0.6364 -67.0650 140° Southeast  Level FlightAware Approximate
05:40AM -0.7393 -66.9794 140° Southeast  Level FlightAware Approximate
05:41AM -0.8422 -66.8937 140° Southeast  Level FlightAware Approximate
05:42AM -0.9450 -66.8082 140° Southeast  Level FlightAware Approximate
05:43AM -1.0477 -66.7226 140° Southeast  Level FlightAware Approximate
05:44AM -1.1504 -66.6371 140° Southeast  Level FlightAware Approximate
05:45AM -1.2531 -66.5515 140° Southeast  Level FlightAware Approximate
05:46AM -1.3558 -66.4660 140° Southeast  Level FlightAware Approximate
05:47AM -1.4586 -66.3804 140° Southeast  Level FlightAware Approximate
05:48AM -1.5613 -66.2949 140° Southeast  Level FlightAware Approximate
05:49AM -1.6640 -66.2093 140° Southeast  Level FlightAware Approximate
05:50AM -1.7667 -66.1237 140° Southeast  Level FlightAware Approximate
05:51AM -1.8694 -66.0381 140° Southeast  Level FlightAware Approximate
05:52AM -1.9721 -65.9525 140° Southeast  Level FlightAware Approximate
05:53AM -2.0748 -65.8669 140° Southeast  Level FlightAware Approximate
05:54AM -2.1774 -65.7813 140° Southeast  Level FlightAware Approximate
05:55AM -2.2801 -65.6956 140° Southeast  Level FlightAware Approximate
05:56AM -2.3828 -65.6100 140° Southeast  Level FlightAware Approximate
05:57AM -2.4855 -65.5243 140° Southeast  Level FlightAware Approximate
05:58AM -2.5881 -65.4387 140° Southeast  Level FlightAware Approximate
05:59AM -2.6908 -65.3530 140° Southeast  Level FlightAware Approximate
06:00AM -2.7935 -65.2673 140° Southeast  Level FlightAware Approximate
06:01AM -2.8961 -65.1816 140° Southeast  Level FlightAware Approximate
06:02AM -2.9987 -65.0958 140° Southeast  Level FlightAware Approximate
06:03AM -3.1014 -65.0101 140° Southeast  Level FlightAware Approximate
06:04AM -3.2040 -64.9243 140° Southeast  Level FlightAware Approximate
06:05AM -3.3066 -64.8385 140° Southeast  Level FlightAware Approximate
06:06AM -3.4092 -64.7527 140° Southeast  Level FlightAware Approximate
06:07AM -3.5118 -64.6669 140° Southeast  Level FlightAware Approximate
06:08AM -3.6144 -64.5811 140° Southeast  Level FlightAware Approximate
06:09AM -3.7170 -64.4952 140° Southeast  Level FlightAware Approximate
06:10AM -3.8196 -64.4093 140° Southeast  Level FlightAware Approximate
06:11AM -3.9222 -64.3234 140° Southeast  Level FlightAware Approximate
06:12AM -4.0247 -64.2375 140° Southeast  Level FlightAware Approximate
06:13AM -4.1273 -64.1516 140° Southeast  Level FlightAware Approximate
06:14AM -4.2298 -64.0656 140° Southeast  Level FlightAware Approximate
06:15AM -4.3323 -63.9796 140° Southeast  Level FlightAware Approximate
06:16AM -4.4349 -63.8936 140° Southeast  Level FlightAware Approximate
06:17AM -4.5374 -63.8076 140° Southeast  Level FlightAware Approximate
06:18AM -4.6399 -63.7215 140° Southeast  Level FlightAware Approximate
06:19AM -4.7424 -63.6354 140° Southeast  Level FlightAware Approximate
06:20AM -4.8449 -63.5493 140° Southeast  Level FlightAware Approximate
06:21AM -4.9473 -63.4632 140° Southeast  Level FlightAware Approximate
06:22AM -5.0498 -63.3770 140° Southeast  Level FlightAware Approximate
06:23AM -5.1522 -63.2909 140° Southeast  Level FlightAware Approximate
06:24AM -5.2547 -63.2046 140° Southeast  Level FlightAware Approximate
06:25AM -5.3571 -63.1184 140° Southeast  Level FlightAware Approximate
06:26AM -5.4595 -63.0321 140° Southeast  Level FlightAware Approximate
06:27AM -5.5619 -62.9458 140° Southeast  Level FlightAware Approximate
06:28AM -5.6643 -62.8595 140° Southeast  Level FlightAware Approximate
06:29AM -5.7667 -62.7731 140° Southeast  Level FlightAware Approximate
06:30AM -5.8691 -62.6867 140° Southeast  Level FlightAware Approximate
06:31AM -5.9714 -62.6003 140° Southeast  Level FlightAware Approximate
06:32AM -6.0738 -62.5139 140° Southeast  Level FlightAware Approximate
06:33AM -6.1761 -62.4274 140° Southeast  Level FlightAware Approximate
06:34AM -6.2784 -62.3408 140° Southeast  Level FlightAware Approximate
06:35AM -6.3807 -62.2543 140° Southeast  Level FlightAware Approximate
06:36AM -6.4830 -62.1677 140° Southeast  Level FlightAware Approximate
06:37AM -6.5852 -62.0811 140° Southeast  Level FlightAware Approximate
06:38AM -6.6875 -61.9944 140° Southeast  Level FlightAware Approximate
06:39AM -6.7897 -61.9077 140° Southeast  Level FlightAware Approximate
06:40AM -6.8919 -61.8210 140° Southeast  Level FlightAware Approximate
06:41AM -6.9942 -61.7342 140° Southeast  Level FlightAware Approximate
06:42AM -7.0963 -61.6474 140° Southeast  Level FlightAware Approximate
06:43AM -7.1985 -61.5605 140° Southeast  Level FlightAware Approximate
06:44AM -7.3007 -61.4736 140° Southeast  Level FlightAware Approximate
06:45AM -7.4028 -61.3867 140° Southeast  Level FlightAware Approximate
06:46AM -7.5049 -61.2997 140° Southeast  Level FlightAware Approximate
06:47AM -7.6070 -61.2127 140° Southeast  Level FlightAware Approximate
06:48AM -7.7091 -61.1257 140° Southeast  Level FlightAware Approximate
06:49AM -7.8112 -61.0386 140° Southeast  Level FlightAware Approximate
06:50AM -7.9132 -60.9515 140° Southeast  Level FlightAware Approximate
06:51AM -8.0153 -60.8643 140° Southeast  Level FlightAware Approximate
06:52AM -8.1173 -60.7771 140° Southeast  Level FlightAware Approximate
06:53AM -8.2193 -60.6898 140° Southeast  Level FlightAware Approximate
06:54AM -8.3213 -60.6025 140° Southeast  Level FlightAware Approximate
06:55AM -8.4233 -60.5151 140° Southeast  Level FlightAware Approximate
06:56AM -8.5252 -60.4277 140° Southeast  Level FlightAware Approximate
06:57AM -8.6271 -60.3403 140° Southeast  Level FlightAware Approximate
06:58AM -8.7290 -60.2528 140° Southeast  Level FlightAware Approximate
06:59AM -8.8309 -60.1652 140° Southeast  Level FlightAware Approximate
07:00AM -8.9327 -60.0776 140° Southeast  Level FlightAware Approximate
07:01AM -9.0346 -59.9900 140° Southeast  Level FlightAware Approximate
07:02AM -9.1364 -59.9023 140° Southeast  Level FlightAware Approximate
07:03AM -9.2382 -59.8145 140° Southeast  Level FlightAware Approximate
07:04AM -9.3400 -59.7268 140° Southeast  Level FlightAware Approximate
07:05AM -9.4417 -59.6389 140° Southeast  Level FlightAware Approximate
07:06AM -9.5435 -59.5510 140° Southeast  Level FlightAware Approximate
07:07AM -9.6452 -59.4631 140° Southeast  Level FlightAware Approximate
07:08AM -9.7469 -59.3751 140° Southeast  Level FlightAware Approximate
07:09AM -9.8485 -59.2870 140° Southeast  Level FlightAware Approximate
07:10AM -9.9502 -59.1989 140° Southeast  Level FlightAware Approximate
07:11AM -10.0518 -59.1107 139° Southeast  Level FlightAware Approximate
07:12AM -10.1534 -59.0225 139° Southeast  Level FlightAware Approximate
07:13AM -10.2550 -58.9342 139° Southeast  Level FlightAware Approximate
07:14AM -10.3565 -58.8459 139° Southeast  Level FlightAware Approximate
07:15AM -10.4581 -58.7575 139° Southeast  Level FlightAware Approximate
07:16AM -10.5596 -58.6690 139° Southeast  Level FlightAware Approximate
07:17AM -10.6610 -58.5805 139° Southeast  Level FlightAware Approximate
07:18AM -10.7625 -58.4920 139° Southeast  Level FlightAware Approximate
07:19AM -10.8639 -58.4033 139° Southeast  Level FlightAware Approximate
07:20AM -10.9653 -58.3147 139° Southeast  Level FlightAware Approximate
07:21AM -11.0667 -58.2259 139° Southeast  Level FlightAware Approximate
07:22AM -11.1680 -58.1371 139° Southeast  Level FlightAware Approximate
07:23AM -11.2694 -58.0482 139° Southeast  Level FlightAware Approximate
07:24AM -11.3707 -57.9593 139° Southeast  Level FlightAware Approximate
07:25AM -11.4719 -57.8703 139° Southeast  Level FlightAware Approximate
07:26AM -11.5732 -57.7812 139° Southeast  Level FlightAware Approximate
07:27AM -11.6744 -57.6921 139° Southeast  Level FlightAware Approximate
07:28AM -11.7756 -57.6029 139° Southeast  Level FlightAware Approximate
07:29AM -11.8767 -57.5137 139° Southeast  Level FlightAware Approximate
07:30AM -11.9779 -57.4244 139° Southeast  Level FlightAware Approximate
07:31AM -12.0790 -57.3350 139° Southeast  Level FlightAware Approximate
07:32AM -12.1801 -57.2455 139° Southeast  Level FlightAware Approximate
07:33AM -12.2811 -57.1560 139° Southeast  Level FlightAware Approximate
07:34AM -12.3821 -57.0664 139° Southeast  Level FlightAware Approximate
07:35AM -12.4831 -56.9767 139° Southeast  Level FlightAware Approximate
07:36AM -12.5841 -56.8870 139° Southeast  Level FlightAware Approximate
07:37AM -12.6850 -56.7972 139° Southeast  Level FlightAware Approximate
07:38AM -12.7859 -56.7073 139° Southeast  Level FlightAware Approximate
07:39AM -12.8868 -56.6174 139° Southeast  Level FlightAware Approximate
07:40AM -12.9876 -56.5274 139° Southeast  Level FlightAware Approximate
07:41AM -13.0884 -56.4373 139° Southeast  Level FlightAware Approximate
07:42AM -13.1892 -56.3471 139° Southeast  Level FlightAware Approximate
07:43AM -13.2900 -56.2569 139° Southeast  Level FlightAware Approximate
07:44AM -13.3907 -56.1666 139° Southeast  Level FlightAware Approximate
07:45AM -13.4914 -56.0762 139° Southeast  Level FlightAware Approximate
07:46AM -13.5920 -55.9857 139° Southeast  Level FlightAware Approximate
07:47AM -13.6926 -55.8952 139° Southeast  Level FlightAware Approximate
07:48AM -13.7932 -55.8045 139° Southeast  Level FlightAware Approximate
07:49AM -13.8938 -55.7138 139° Southeast  Level FlightAware Approximate
07:50AM -13.9943 -55.6231 139° Southeast  Level FlightAware Approximate
07:51AM -14.0948 -55.5322 139° Southeast  Level FlightAware Approximate
07:52AM -14.1952 -55.4413 139° Southeast  Level FlightAware Approximate
07:53AM -14.2956 -55.3502 139° Southeast  Level FlightAware Approximate
07:54AM -14.3960 -55.2591 139° Southeast  Level FlightAware Approximate
07:55AM -14.4964 -55.1680 139° Southeast  Level FlightAware Approximate
07:56AM -14.5967 -55.0767 139° Southeast  Level FlightAware Approximate
07:57AM -14.6969 -54.9854 139° Southeast  Level FlightAware Approximate
07:58AM -14.7972 -54.8939 139° Southeast  Level FlightAware Approximate
07:59AM -14.8974 -54.8024 139° Southeast  Level FlightAware Approximate
08:00AM -14.9975 -54.7108 139° Southeast  Level FlightAware Approximate
08:01AM -15.0977 -54.6191 139° Southeast  Level FlightAware Approximate
08:02AM -15.1978 -54.5273 139° Southeast  Level FlightAware Approximate
08:03AM -15.2978 -54.4355 138° Southeast  Level FlightAware Approximate
08:04AM -15.3978 -54.3435 138° Southeast  Level FlightAware Approximate
08:05AM -15.4978 -54.2515 138° Southeast  Level FlightAware Approximate
08:06AM -15.5978 -54.1594 138° Southeast  Level FlightAware Approximate
08:07AM -15.6977 -54.0672 138° Southeast  Level FlightAware Approximate
08:08AM -15.7975 -53.9748 138° Southeast  Level FlightAware Approximate
08:09AM -15.8974 -53.8825 138° Southeast  Level FlightAware Approximate
08:10AM -15.9971 -53.7900 138° Southeast  Level FlightAware Approximate
08:11AM -16.0969 -53.6974 138° Southeast  Level FlightAware Approximate
08:12AM -16.1966 -53.6047 138° Southeast  Level FlightAware Approximate
08:13AM -16.2963 -53.5119 138° Southeast  Level FlightAware Approximate
08:14AM -16.3959 -53.4191 138° Southeast  Level FlightAware Approximate
08:15AM -16.4955 -53.3261 138° Southeast  Level FlightAware Approximate
08:16AM -16.5950 -53.2331 138° Southeast  Level FlightAware Approximate
08:17AM -16.6945 -53.1399 138° Southeast  Level FlightAware Approximate
08:18AM -16.7940 -53.0467 138° Southeast  Level FlightAware Approximate
08:19AM -16.8934 -52.9533 138° Southeast  Level FlightAware Approximate
08:20AM -16.9928 -52.8599 138° Southeast  Level FlightAware Approximate
08:21AM -17.0921 -52.7663 138° Southeast  Level FlightAware Approximate
08:22AM -17.1914 -52.6727 138° Southeast  Level FlightAware Approximate
08:23AM -17.2907 -52.5790 138° Southeast  Level FlightAware Approximate
08:23AM -18.9930 -50.6780 138° Southeast 539 620 37,000  Level FlightAware
08:24AM -17.3899 -52.4851 138° Southeast  Level FlightAware Approximate
08:24AM -19.0790 -50.5840 134° Southeast 539 620 37,000  Level FlightAware
08:24AM -19.1640 -50.4920 134° Southeast 540 621 37,000  Level FlightAware
08:25AM -19.2570 -50.3890 134° Southeast 538 619 37,000  Level FlightAware
08:26AM -19.3260 -50.3140 134° Southeast 537 618 37,000  Level FlightAware
08:27AM -19.3980 -50.2350 134° Southeast 536 617 37,000  Level FlightAware
08:27AM -19.4740 -50.1510 134° Southeast 535 616 37,000  Level FlightAware
08:28AM -19.5390 -50.0790 134° Southeast 534 615 37,000  Level FlightAware
08:29AM -19.6170 -49.9940 134° Southeast 533 613 37,000  Level FlightAware
08:29AM -19.6870 -49.9170 134° Southeast 531 611 37,000  Level FlightAware
08:31AM -19.7520 -49.8460 134° Southeast 531 611 37,000  Level FlightAware
08:31AM -19.8820 -49.7040 134° Southeast 531 611 37,000  Level FlightAware
08:32AM -19.9540 -49.6250 134° Southeast 532 612 37,000  Level FlightAware
08:33AM -20.0230 -49.5500 134° Southeast 532 612 37,000  Level FlightAware
08:33AM -20.0980 -49.4670 134° Southeast 533 613 37,000  Level FlightAware
08:34AM -20.1630 -49.3960 134° Southeast 534 615 37,000  Level FlightAware
08:35AM -20.2450 -49.3050 134° Southeast 536 617 37,000  Level FlightAware
08:35AM -20.3150 -49.2280 134° Southeast 538 619 37,000  Level FlightAware
08:36AM -20.3870 -49.1490 134° Southeast 539 620 37,000  Level FlightAware
08:37AM -20.4640 -49.0640 134° Southeast 541 623 37,000  Level FlightAware
08:38AM -20.5330 -48.9860 133° Southeast 541 623 37,000  Level FlightAware
08:38AM -20.6050 -48.9060 134° Southeast 542 624 37,000  Level FlightAware
08:39AM -20.6800 -48.8230 134° Southeast 543 625 37,000  Level FlightAware
08:40AM -20.7740 -48.7180 134° Southeast 545 627 37,000  Level FlightAware
08:42AM -20.9350 -48.5350 133° Southeast 545 627 37,000  Level FlightAware
08:42AM -21.0160 -48.4460 134° Southeast 546 628 37,000  Level FlightAware
08:43AM -21.0960 -48.3560 134° Southeast 547 629 37,000  Level FlightAware
08:44AM -21.1660 -48.2770 134° Southeast 548 631 37,000  Level FlightAware
08:44AM -21.2430 -48.1900 134° Southeast 548 631 37,000  Level FlightAware
08:45AM -21.2850 -48.1420 133° Southeast 547 629 37,000  Level FlightAware
08:46AM -21.3960 -48.0170 134° Southeast 546 628 37,000  Level FlightAware
08:47AM -21.4700 -47.9320 133° Southeast 545 627 37,000  Level FlightAware
08:47AM -21.5430 -47.8500 134° Southeast 544 626 37,000  Level FlightAware
08:48AM -21.6180 -47.7650 134° Southeast 544 626 37,000 -240 Level FlightAware
08:49AM -21.6870 -47.6870 134° Southeast 539 620 36,700 -840 Descending FlightAware
08:49AM -21.7620 -47.6000 133° Southeast 530 610 35,900 -1,800 Descending FlightAware
08:50AM -21.8190 -47.5350 133° Southeast 532 612 34,400 -2,640 Descending FlightAware
08:51AM -21.9000 -47.4420 133° Southeast 532 612 32,300 -2,340 Descending FlightAware
08:51AM -21.9680 -47.3680 135° Southeast 510 587 31,000 -2,100 Descending FlightAware
08:52AM -22.0560 -47.3150 151° Southeast 475 547 29,400 -2,100 Descending FlightAware
08:53AM -22.1370 -47.2810 159° South 466 536 28,100 -1,980 Descending FlightAware
08:54AM -22.2180 -47.2480 159° South 457 526 26,700 -1,980 Descending FlightAware
08:54AM -22.2880 -47.2200 160° South 452 520 25,500 -1,800 Descending FlightAware
08:55AM -22.3630 -47.1890 159° South 445 512 24,200 -1,860 Descending FlightAware
08:56AM -22.4750 -47.1410 158° South 434 499 22,300 -1,920 Descending FlightAware
08:56AM -22.5370 -47.1150 159° South 423 487 21,300 -1,500 Descending FlightAware
08:57AM -22.6170 -47.0810 159° South 371 427 20,300 -1,260 Descending FlightAware
08:58AM -22.6770 -47.0560 159° South 340 391 19,500 -1,560 Descending FlightAware
08:59AM -22.7490 -47.0780 196° South 281 323 18,100 -1,500 Descending FlightAware
08:59AM -22.7870 -47.1130 220° Southwest 278 320 17,300 -1,380 Descending FlightAware
09:00AM -22.8050 -47.1260 214° Southwest 279 321 16,800 -1,680 Descending FlightAware
09:00AM -22.8210 -47.1290 190° South 281 323 16,500 -720 Descending FlightAware
09:01AM -22.8430 -47.1220 164° South 286 329 16,100 -900 Descending FlightAware
09:01AM -22.8750 -47.0810 130° Southeast 286 329 15,600 -1,020 Descending FlightAware
09:02AM -22.9060 -47.0350 126° Southeast 275 316 15,200 -900 Descending FlightAware
09:02AM -22.9390 -46.9860 126° Southeast 278 320 14,400 -1,020 Descending FlightAware
09:03AM -22.9800 -46.9500 141° Southeast 270 311 13,800 -900 Descending FlightAware
09:04AM -23.0160 -46.9210 143° Southeast 253 291 13,200 -1,740 Descending FlightAware
09:04AM -23.0650 -46.8930 152° Southeast 246 283 11,400 -1,920 Descending FlightAware
09:05AM -23.1020 -46.8770 158° South 244 281 10,600 -1,140 Descending FlightAware
09:06AM -23.1570 -46.8540 159° South 242 278 9,500 -1,200 Descending FlightAware
09:06AM -23.1810 -46.8440 159° South 243 280 9,100 -1,560 Descending FlightAware
09:07AM -23.2060 -46.8330 158° South 238 274 8,600 -1,020 Descending FlightAware
09:07AM -23.2410 -46.8190 160° South 233 268 8,100 -960 Descending FlightAware
09:08AM -23.2690 -46.8070 159° South 220 253 7,700 -600 Descending FlightAware
09:08AM -23.2860 -46.8000 159° South 189 217 7,600 -360 Descending FlightAware
09:09AM -23.3120 -46.7900 161° South 190 219 7,400 -540 Descending FlightAware
09:09AM -23.3270 -46.7850 163° South 189 217 7,200 -600 Descending FlightAware
09:09AM -23.3470 -46.7780 162° South 189 217 7,000 -480 Descending FlightAware
09:10AM -23.3680 -46.7700 161° South 177 204 6,800 -1,020 Descending FlightAware
09:10AM -23.3950 -46.7610 163° South 182 209 6,000 -1,500 Descending FlightAware
09:10AM -23.4020 -46.7590 165° South 182 209 5,800 -1,080 Descending FlightAware
09:11AM -23.4370 -46.7430 157° South 172 198 5,200 -540 Descending FlightAware
09:11AM -23.4450 -46.7290 122° Southeast 169 194 5,300  Climbing FlightAware
09:12AM -23.4520 -46.7160 120° Southeast 170 196 5,200 -420 Descending FlightAware
09:12AM -23.4710 -46.6830 122° Southeast 169 194 4,900 -540 Descending FlightAware
09:13AM -23.4750 -46.6750 119° Southeast 171 197 4,800 -720 Descending FlightAware
09:13AM -23.4830 -46.6570 116° Southeast 173 199 4,500 -540 Descending FlightAware
09:13AM -23.4800 -46.6380 80° East 172 198 4,400 -180 Descending FlightAware
09:14AM -23.4750 -46.6200 73° East 162 186 4,400 -240 Level FlightAware
09:14AM -23.4680 -46.5940 74° East 161 185 4,200 -480 Descending FlightAware
09:14AM -23.4660 -46.5880 70° East 156 180 4,100 -900 Descending FlightAware
09:15AM -23.4610 -46.5690 74° East 150 173 3,700 -840 Descending FlightAware
09:15AM -23.4560 -46.5520 72° East 149 171 3,400 -840 Descending FlightAware
09:16AM -23.4510 -46.5310 75° East 149 171 3,000 -900 Descending FlightAware
09:16AM -23.4450 -46.5110 72° East 154 177 2,600 -780 Descending FlightAware
09:17AM -23.4400 -46.4910 75° East 150 173 2,300 -660 Descending FlightAware
09:17AM -23.4360 -46.4760 74° East 130 150 -5,520 Descending FlightAware
09:17AM -23.4340 -46.4690 73° East 84 97  Level FlightAware
09:18AM -23.4310 -46.4600 70° East 84 97  Level FlightAware